Time;durP1;ratioP1;P1;durP2;ratioP2;P2;SDS_P1;SDS_P2;PMS_P1;PMS_P2;Temp;Humidity;BMP_temperature;BMP_pressure;BME280_temperature;BME280_humidity;BME280_pressure;Samples;Min_cycle;Max_cycle;Signal;HPM_P1;HPM_P2
2023/11/04 00:01:21;;;;;;;3.23;1.10;;;8.30;99.90;;;;;;5035443;28;20032;-50
2023/11/04 00:03:46;;;;;;;3.40;1.30;;;8.30;99.90;;;;;;5035648;28;20440;-50
2023/11/04 00:06:12;;;;;;;4.20;1.03;;;8.30;99.90;;;;;;5034171;28;20486;-56
2023/11/04 00:08:40;;;;;;;2.90;0.90;;;8.20;99.90;;;;;;5032841;28;20026;-55
2023/11/04 00:11:05;;;;;;;5.83;1.37;;;8.30;99.90;;;;;;5033586;28;20030;-54
2023/11/04 00:13:31;;;;;;;2.60;0.83;;;8.30;99.90;;;;;;5033848;28;20032;-54
2023/11/04 00:15:57;;;;;;;2.27;1.07;;;8.40;99.90;;;;;;5034183;28;20044;-53
2023/11/04 00:18:23;;;;;;;1.40;0.70;;;8.40;99.90;;;;;;5034053;28;20034;-55
2023/11/04 00:20:49;;;;;;;3.30;0.70;;;8.40;99.90;;;;;;5017577;28;20052;-53
2023/11/04 00:23:15;;;;;;;4.00;0.77;;;8.40;99.90;;;;;;5035591;28;20026;-54
2023/11/04 00:25:40;;;;;;;1.27;0.70;;;8.50;99.90;;;;;;5035588;28;20445;-53
2023/11/04 00:28:06;;;;;;;3.10;0.90;;;8.60;99.90;;;;;;5035920;28;20025;-55
2023/11/04 00:30:31;;;;;;;4.30;1.00;;;8.60;99.90;;;;;;5020851;28;20120;-52
2023/11/04 00:32:57;;;;;;;2.87;0.77;;;8.60;99.90;;;;;;5021133;28;20029;-54
2023/11/04 00:35:23;;;;;;;4.87;0.93;;;8.60;99.90;;;;;;5004763;28;20037;-52
2023/11/04 00:37:48;;;;;;;5.10;0.87;;;8.70;99.90;;;;;;5020970;28;20037;-52
2023/11/04 00:40:14;;;;;;;3.90;0.87;;;8.70;99.90;;;;;;5021446;28;20046;-52
2023/11/04 00:42:40;;;;;;;1.43;0.67;;;8.70;99.90;;;;;;5021140;28;20094;-53
2023/11/04 00:45:06;;;;;;;2.73;0.60;;;8.70;99.90;;;;;;5021271;28;20029;-51
2023/11/04 00:47:31;;;;;;;3.60;0.87;;;8.80;99.90;;;;;;5020699;28;20494;-54
2023/11/04 00:49:57;;;;;;;2.00;0.67;;;8.80;99.90;;;;;;5020398;28;20032;-51
2023/11/04 00:52:23;;;;;;;0.87;0.50;;;8.80;99.90;;;;;;5038817;28;20025;-51
2023/11/04 00:54:49;;;;;;;1.63;0.73;;;8.80;99.90;;;;;;5021558;28;20109;-52
2023/11/04 00:57:14;;;;;;;2.40;0.60;;;8.90;99.90;;;;;;5020638;28;20101;-54
2023/11/04 00:59:40;;;;;;;1.57;0.60;;;8.90;99.90;;;;;;5038660;28;20029;-51
2023/11/04 01:02:05;;;;;;;6.40;0.90;;;9.00;99.90;;;;;;5020583;28;20075;-52
2023/11/04 01:04:31;;;;;;;1.17;0.67;;;9.00;99.90;;;;;;5038991;28;20086;-53
2023/11/04 01:06:57;;;;;;;1.57;0.60;;;9.00;99.90;;;;;;5020145;28;20044;-49
2023/11/04 01:09:22;;;;;;;1.13;0.60;;;9.00;99.90;;;;;;5020260;28;20068;-53
2023/11/04 01:11:49;;;;;;;1.70;0.60;;;9.00;99.90;;;;;;5020436;28;20034;-52
2023/11/04 01:14:15;;;;;;;3.90;0.63;;;9.10;99.90;;;;;;5020095;28;20079;-50
2023/11/04 01:16:40;;;;;;;2.70;0.50;;;9.10;99.90;;;;;;5019462;28;20474;-51
2023/11/04 01:19:06;;;;;;;2.77;0.93;;;9.10;99.90;;;;;;5020035;28;20033;-53
2023/11/04 01:21:31;;;;;;;1.40;0.50;;;9.10;99.90;;;;;;5020034;28;20041;-51
2023/11/04 01:23:57;;;;;;;1.60;0.80;;;9.00;99.90;;;;;;5019840;28;20033;-53
2023/11/04 01:26:23;;;;;;;1.87;0.50;;;9.10;99.90;;;;;;5019391;28;20033;-53
2023/11/04 01:28:48;;;;;;;1.50;0.60;;;9.00;99.90;;;;;;5019410;28;20029;-49
2023/11/04 01:31:14;;;;;;;0.93;0.40;;;9.10;99.90;;;;;;5037589;28;20037;-50
2023/11/04 01:33:40;;;;;;;2.40;0.60;;;9.10;99.90;;;;;;5019671;28;20025;-51
2023/11/04 01:36:06;;;;;;;0.60;0.30;;;9.10;99.90;;;;;;5037686;28;20038;-50
2023/11/04 01:38:32;;;;;;;1.37;0.30;;;9.10;99.90;;;;;;5037632;28;20160;-50
2023/11/04 01:40:58;;;;;;;0.87;0.30;;;9.10;99.90;;;;;;5037444;28;20033;-51
2023/11/04 01:43:25;;;;;;;1.87;0.47;;;9.10;99.90;;;;;;5037646;28;20087;-50
2023/11/04 01:46:15;;;;;;;0.50;0.30;;;9.10;99.90;;;;;;5019666;28;20079;-52
2023/11/04 01:48:41;;;;;;;1.60;0.40;;;9.20;99.90;;;;;;5019889;28;20033;-51
2023/11/04 01:51:08;;;;;;;1.57;0.67;;;9.20;99.90;;;;;;5003468;28;20037;-50
2023/11/04 01:53:35;;;;;;;1.33;0.40;;;9.20;99.90;;;;;;5019481;28;20021;-50
2023/11/04 01:56:06;;;;;;;1.20;0.37;;;9.30;99.90;;;;;;5037389;28;20029;-55
2023/11/04 01:58:34;;;;;;;1.07;0.30;;;9.30;99.90;;;;;;5035483;28;20391;-55
2023/11/04 02:01:02;;;;;;;0.33;0.20;;;9.30;99.90;;;;;;5018811;28;20041;-50
2023/11/04 02:03:28;;;;;;;0.57;0.30;;;9.30;99.90;;;;;;5018856;28;20040;-54
2023/11/04 02:05:53;;;;;;;2.17;0.63;;;9.40;99.90;;;;;;5019479;28;20029;-55
2023/11/04 02:08:20;;;;;;;0.27;0.20;;;9.40;99.90;;;;;;5037922;28;20036;-54
2023/11/04 02:10:46;;;;;;;0.97;0.30;;;9.40;99.90;;;;;;5019251;28;20041;-50
2023/11/04 02:13:12;;;;;;;1.30;0.40;;;9.30;99.90;;;;;;5019395;28;20040;-55
2023/11/04 02:15:38;;;;;;;0.30;0.23;;;9.30;99.90;;;;;;5019449;28;20029;-51
2023/11/04 02:18:03;;;;;;;0.50;0.20;;;9.40;99.90;;;;;;5018877;28;20097;-54
2023/11/04 02:20:32;;;;;;;0.27;0.20;;;9.40;99.90;;;;;;5037818;28;20121;-51
2023/11/04 02:22:58;;;;;;;0.43;0.32;;;9.40;99.90;;;;;;5019473;28;20037;-53
2023/11/04 02:25:29;;;;;;;0.77;0.30;;;9.40;99.90;;;;;;5037271;28;20040;-51
2023/11/04 02:27:54;;;;;;;0.40;0.10;;;9.40;99.90;;;;;;5035777;28;20107;-55
2023/11/04 02:30:20;;;;;;;0.10;0.10;;;9.40;99.90;;;;;;5001954;28;20030;-52
2023/11/04 02:32:46;;;;;;;0.30;0.30;;;9.40;99.90;;;;;;5036548;28;20025;-55
2023/11/04 02:35:14;;;;;;;0.30;0.27;;;9.40;99.90;;;;;;5018165;28;20040;-53
2023/11/04 02:37:40;;;;;;;1.07;0.40;;;9.40;99.90;;;;;;5018362;28;20039;-54
2023/11/04 02:40:06;;;;;;;1.10;0.17;;;9.50;99.90;;;;;;5035769;28;20049;-53
2023/11/04 02:42:32;;;;;;;0.97;0.20;;;9.40;99.90;;;;;;5036030;28;20210;-56
2023/11/04 02:44:57;;;;;;;0.87;0.20;;;9.50;99.90;;;;;;5035703;28;20037;-55
2023/11/04 02:47:23;;;;;;;0.10;0.10;;;9.40;99.90;;;;;;5017407;28;20514;-52
2023/11/04 02:49:49;;;;;;;0.30;0.20;;;9.50;99.90;;;;;;5035571;28;20037;-52
2023/11/04 02:52:14;;;;;;;0.40;0.20;;;9.50;99.90;;;;;;5017517;28;20071;-50
2023/11/04 02:54:40;;;;;;;0.60;0.20;;;9.50;99.90;;;;;;5001767;28;20555;-50
2023/11/04 02:57:05;;;;;;;0.80;0.20;;;9.50;99.90;;;;;;5036107;28;20029;-51
2023/11/04 02:59:31;;;;;;;0.77;0.40;;;9.50;99.90;;;;;;5035889;28;20048;-52
2023/11/04 03:01:57;;;;;;;0.40;0.20;;;9.50;99.90;;;;;;5019220;28;20593;-53
2023/11/04 03:04:24;;;;;;;0.67;0.20;;;9.50;99.90;;;;;;5018644;28;20366;-53
2023/11/04 03:06:50;;;;;;;0.50;0.30;;;9.50;99.90;;;;;;5035326;28;20041;-51
2023/11/04 03:09:15;;;;;;;0.83;0.30;;;9.50;99.90;;;;;;5017816;28;20034;-53
2023/11/04 03:11:42;;;;;;;2.57;0.30;;;9.50;99.90;;;;;;5017632;28;20061;-53
2023/11/04 03:14:07;;;;;;;0.20;0.13;;;9.50;99.90;;;;;;5035642;28;20033;-52
2023/11/04 03:16:34;;;;;;;0.20;0.10;;;9.50;99.90;;;;;;5035529;28;20040;-54
2023/11/04 03:19:00;;;;;;;0.47;0.20;;;9.50;99.90;;;;;;5035526;28;20418;-52
2023/11/04 03:21:25;;;;;;;1.40;0.30;;;9.50;99.90;;;;;;5017932;28;20034;-50
2023/11/04 03:23:51;;;;;;;0.50;0.30;;;9.50;99.90;;;;;;5017791;28;20026;-52
2023/11/04 03:26:18;;;;;;;1.60;0.40;;;9.50;99.90;;;;;;5036054;28;20490;-51
2023/11/04 03:28:44;;;;;;;1.70;0.10;;;9.50;99.90;;;;;;5036061;28;20037;-54
2023/11/04 03:31:10;;;;;;;0.20;0.20;;;9.50;99.90;;;;;;5036261;28;20041;-51
2023/11/04 03:33:37;;;;;;;0.30;0.20;;;9.40;99.90;;;;;;5035214;28;20038;-52
2023/11/04 03:36:03;;;;;;;1.43;0.33;;;9.40;99.90;;;;;;5017172;28;20098;-54
2023/11/04 03:38:28;;;;;;;0.33;0.30;;;9.50;99.90;;;;;;5017522;28;20134;-51
2023/11/04 03:40:54;;;;;;;0.27;0.27;;;9.40;99.90;;;;;;5035417;28;20049;-52
2023/11/04 03:43:20;;;;;;;0.67;0.23;;;9.50;99.90;;;;;;5035612;28;20048;-52
2023/11/04 03:45:46;;;;;;;0.93;0.40;;;9.50;99.90;;;;;;5018001;28;20034;-54
2023/11/04 03:48:12;;;;;;;1.83;0.30;;;9.50;99.90;;;;;;5035843;28;20075;-49
2023/11/04 03:50:38;;;;;;;3.60;0.43;;;9.50;99.90;;;;;;5036423;28;20053;-51
2023/11/04 03:53:04;;;;;;;1.33;0.70;;;9.40;99.90;;;;;;5035516;28;20033;-53
2023/11/04 03:55:29;;;;;;;0.43;0.20;;;9.40;99.90;;;;;;5035359;28;20394;-50
2023/11/04 03:57:55;;;;;;;0.73;0.30;;;9.40;99.90;;;;;;5017527;28;20455;-50
2023/11/04 04:00:21;;;;;;;0.87;0.20;;;9.40;99.90;;;;;;5017539;28;20041;-52
2023/11/04 04:02:47;;;;;;;0.30;0.20;;;9.50;99.90;;;;;;5037882;28;20093;-53
2023/11/04 04:05:13;;;;;;;1.13;0.50;;;9.40;99.90;;;;;;5039518;28;20026;-52
2023/11/04 04:07:39;;;;;;;0.83;0.30;;;9.50;99.90;;;;;;5038947;28;20546;-50
2023/11/04 04:10:05;;;;;;;0.67;0.30;;;9.40;99.90;;;;;;5038487;28;20120;-52
2023/11/04 04:12:31;;;;;;;0.30;0.20;;;9.40;99.90;;;;;;5038629;28;20099;-52
2023/11/04 04:14:56;;;;;;;0.40;0.30;;;9.40;99.90;;;;;;5038396;28;20037;-51
2023/11/04 04:17:22;;;;;;;0.10;0.10;;;9.40;99.90;;;;;;5038840;28;20103;-54
2023/11/04 04:19:48;;;;;;;1.67;0.30;;;9.40;99.90;;;;;;5038309;28;20293;-51
2023/11/04 04:22:14;;;;;;;1.57;0.50;;;9.40;99.90;;;;;;5021173;28;20036;-53
2023/11/04 04:24:40;;;;;;;0.57;0.30;;;9.50;99.90;;;;;;5021299;28;20034;-53
2023/11/04 04:27:05;;;;;;;0.50;0.30;;;9.50;99.90;;;;;;5038222;28;20034;-54
2023/11/04 04:29:31;;;;;;;0.57;0.30;;;9.50;99.90;;;;;;5038238;28;20033;-52
2023/11/04 04:31:57;;;;;;;0.30;0.30;;;9.50;99.90;;;;;;5021112;28;20033;-53
2023/11/04 04:34:23;;;;;;;0.93;0.20;;;9.40;99.90;;;;;;5020760;28;20045;-54
2023/11/04 04:36:49;;;;;;;0.57;0.57;;;9.40;99.90;;;;;;5038430;28;20029;-54
2023/11/04 04:39:14;;;;;;;0.87;0.43;;;9.50;99.90;;;;;;5037636;28;20047;-51
2023/11/04 04:41:40;;;;;;;0.60;0.30;;;9.50;99.90;;;;;;5038707;28;20041;-51
2023/11/04 04:44:05;;;;;;;2.03;0.40;;;9.50;99.90;;;;;;5038573;28;20033;-53
2023/11/04 04:46:34;;;;;;;0.60;0.43;;;9.50;99.90;;;;;;5038315;28;20109;-50
2023/11/04 04:49:00;;;;;;;0.70;0.50;;;9.50;99.90;;;;;;5037859;28;20025;-51
2023/11/04 04:51:25;;;;;;;0.77;0.43;;;9.50;99.90;;;;;;5038615;28;20446;-49
2023/11/04 04:53:51;;;;;;;0.60;0.30;;;9.50;99.90;;;;;;5038592;28;20026;-51
2023/11/04 04:56:17;;;;;;;0.60;0.30;;;9.50;99.90;;;;;;5020506;28;20111;-52
2023/11/04 04:58:42;;;;;;;0.23;0.23;;;9.50;99.90;;;;;;5038729;28;20429;-52
2023/11/04 05:01:17;;;;;;;0.57;0.30;;;9.50;99.90;;;;;;5039094;28;20032;-49
2023/11/04 05:03:42;;;;;;;0.70;0.50;;;9.50;99.90;;;;;;5038859;28;20040;-53
2023/11/04 05:06:08;;;;;;;0.40;0.30;;;9.50;99.90;;;;;;5038328;28;20037;-52
2023/11/04 05:08:33;;;;;;;0.57;0.20;;;9.50;99.90;;;;;;5038316;28;20076;-51
2023/11/04 05:10:59;;;;;;;0.57;0.30;;;9.50;99.90;;;;;;5020066;28;20037;-54
2023/11/04 05:13:24;;;;;;;0.40;0.23;;;9.50;99.90;;;;;;5037136;28;20025;-51
2023/11/04 05:15:50;;;;;;;1.10;0.40;;;9.50;99.90;;;;;;5037537;28;20025;-52
2023/11/04 05:18:17;;;;;;;1.50;0.27;;;9.50;99.90;;;;;;5037882;28;20040;-52
2023/11/04 05:20:43;;;;;;;1.37;0.33;;;9.50;99.90;;;;;;5037013;28;20038;-52
2023/11/04 05:23:08;;;;;;;0.30;0.20;;;9.50;99.90;;;;;;5037599;28;20056;-54
2023/11/04 05:25:34;;;;;;;3.60;0.40;;;9.50;99.90;;;;;;5037959;28;20478;-53
2023/11/04 05:27:59;;;;;;;0.90;0.40;;;9.50;99.90;;;;;;5037551;28;20243;-52
2023/11/04 05:30:25;;;;;;;2.43;0.40;;;9.50;99.90;;;;;;5037742;28;20026;-54
2023/11/04 05:32:51;;;;;;;0.83;0.50;;;9.50;99.90;;;;;;5038298;28;20048;-53
2023/11/04 05:35:17;;;;;;;0.83;0.43;;;9.40;99.90;;;;;;5037774;28;20525;-51
2023/11/04 05:37:43;;;;;;;0.40;0.20;;;9.30;99.90;;;;;;5019748;28;20192;-55
2023/11/04 05:40:09;;;;;;;2.53;0.47;;;9.30;99.90;;;;;;5037417;28;20376;-54
2023/11/04 05:42:35;;;;;;;0.97;0.30;;;9.30;99.90;;;;;;5037748;28;20120;-54
2023/11/04 05:45:01;;;;;;;1.53;0.80;;;9.40;99.90;;;;;;5036812;28;20502;-53
2023/11/04 05:47:26;;;;;;;2.23;0.60;;;9.30;99.90;;;;;;5036854;28;20044;-54
2023/11/04 05:49:52;;;;;;;2.60;0.60;;;9.40;99.90;;;;;;5037405;28;20025;-54
2023/11/04 05:52:18;;;;;;;1.33;0.57;;;9.40;99.90;;;;;;5036762;28;20044;-53
2023/11/04 05:54:43;;;;;;;2.50;1.00;;;9.50;99.90;;;;;;5019181;28;20036;-55
2023/11/04 05:57:09;;;;;;;1.20;0.40;;;9.50;99.90;;;;;;5036307;28;20029;-51
2023/11/04 05:59:35;;;;;;;2.17;0.80;;;9.50;99.90;;;;;;5036337;28;20414;-54
2023/11/04 06:02:01;;;;;;;1.80;0.33;;;9.50;99.90;;;;;;5019147;28;20034;-54
2023/11/04 06:04:27;;;;;;;1.03;0.40;;;9.50;99.90;;;;;;5037056;28;20087;-53
2023/11/04 06:06:53;;;;;;;2.40;0.50;;;9.40;99.90;;;;;;5036238;28;20029;-52
2023/11/04 06:09:18;;;;;;;0.40;0.40;;;9.40;99.90;;;;;;5035876;28;20052;-56
2023/11/04 06:11:44;;;;;;;0.67;0.40;;;9.50;99.90;;;;;;5036584;28;20033;-55
2023/11/04 06:14:10;;;;;;;0.87;0.30;;;9.50;99.90;;;;;;5036191;28;20025;-56
2023/11/04 06:16:35;;;;;;;1.73;0.50;;;9.50;99.90;;;;;;5036310;28;20029;-55
2023/11/04 06:19:01;;;;;;;1.23;0.30;;;9.50;99.90;;;;;;5017963;28;20044;-49
2023/11/04 06:21:26;;;;;;;0.30;0.20;;;9.50;99.90;;;;;;5017930;28;20444;-55
2023/11/04 06:23:52;;;;;;;1.23;0.30;;;9.50;99.90;;;;;;5035923;28;20037;-55
2023/11/04 06:26:22;;;;;;;0.80;0.40;;;9.50;99.90;;;;;;5035344;28;20026;-51
2023/11/04 06:28:48;;;;;;;3.40;0.40;;;9.50;99.90;;;;;;5035262;28;20297;-55
2023/11/04 06:31:14;;;;;;;1.33;0.50;;;9.50;99.90;;;;;;5018365;28;20038;-52
2023/11/04 06:33:40;;;;;;;0.83;0.30;;;9.50;99.90;;;;;;5018360;28;20083;-54
2023/11/04 06:36:06;;;;;;;2.33;0.70;;;9.50;99.90;;;;;;5017208;28;20029;-54
2023/11/04 06:38:32;;;;;;;0.83;0.40;;;9.40;99.90;;;;;;5035446;28;20030;-55
2023/11/04 06:40:57;;;;;;;0.93;0.50;;;9.40;99.90;;;;;;5035265;28;20037;-51
2023/11/04 06:43:23;;;;;;;1.40;0.40;;;9.40;99.90;;;;;;5036135;28;20114;-53
2023/11/04 06:45:48;;;;;;;1.13;0.40;;;9.40;99.90;;;;;;5035002;28;20041;-49
2023/11/04 06:48:14;;;;;;;4.33;0.70;;;9.30;99.90;;;;;;5035408;28;20045;-53
2023/11/04 06:50:40;;;;;;;0.87;0.40;;;9.20;99.90;;;;;;5017451;28;20033;-55
2023/11/04 06:53:06;;;;;;;1.50;0.40;;;9.20;99.90;;;;;;5035812;28;20026;-54
2023/11/04 06:55:33;;;;;;;0.63;0.40;;;9.30;99.90;;;;;;5035414;28;20041;-52
2023/11/04 06:57:58;;;;;;;1.33;0.40;;;9.30;99.90;;;;;;5034996;28;20095;-50
2023/11/04 07:00:24;;;;;;;0.40;0.30;;;9.30;99.90;;;;;;5035301;28;20029;-50
2023/11/04 07:02:50;;;;;;;0.70;0.20;;;9.30;99.90;;;;;;5035901;28;20096;-52
2023/11/04 07:05:16;;;;;;;4.20;1.03;;;9.30;99.90;;;;;;5035766;28;20198;-50
2023/11/04 07:07:42;;;;;;;2.20;0.80;;;9.30;99.90;;;;;;5035015;28;20112;-51
2023/11/04 07:10:09;;;;;;;1.10;0.60;;;9.30;99.90;;;;;;5035148;28;20030;-51
2023/11/04 07:12:35;;;;;;;0.40;0.30;;;9.40;99.90;;;;;;5018121;28;20040;-52
2023/11/04 07:15:04;;;;;;;0.63;0.30;;;9.30;99.90;;;;;;5036257;28;20079;-53
2023/11/04 07:17:30;;;;;;;0.43;0.22;;;9.30;99.90;;;;;;5035705;28;20465;-55
2023/11/04 07:19:57;;;;;;;1.20;0.33;;;9.30;99.90;;;;;;5018161;28;20033;-53
2023/11/04 07:22:23;;;;;;;1.27;0.40;;;9.30;99.90;;;;;;5036404;28;20028;-52
2023/11/04 07:24:49;;;;;;;0.53;0.40;;;9.30;99.90;;;;;;5035907;28;20249;-50
2023/11/04 07:27:15;;;;;;;0.60;0.30;;;9.30;99.90;;;;;;5035771;28;20037;-53
2023/11/04 07:29:41;;;;;;;1.20;0.33;;;9.30;99.90;;;;;;5035466;28;20501;-55
2023/11/04 07:32:07;;;;;;;2.00;0.60;;;9.30;99.90;;;;;;5035968;28;20386;-54
2023/11/04 07:34:33;;;;;;;0.70;0.50;;;9.30;99.90;;;;;;5035465;28;20037;-49
2023/11/04 07:37:00;;;;;;;1.47;0.50;;;9.30;99.90;;;;;;5019228;28;20033;-51
2023/11/04 07:39:28;;;;;;;0.90;0.30;;;9.40;99.90;;;;;;5040218;28;20450;-51
2023/11/04 07:41:54;;;;;;;0.83;0.37;;;9.30;99.90;;;;;;5039679;28;20447;-54
2023/11/04 07:44:20;;;;;;;0.40;0.33;;;9.40;99.90;;;;;;5038696;28;20029;-55
2023/11/04 07:46:46;;;;;;;0.57;0.30;;;9.50;99.90;;;;;;5038302;28;20502;-55
2023/11/04 07:49:12;;;;;;;1.90;0.30;;;9.50;99.90;;;;;;5020526;28;20045;-54
2023/11/04 07:51:38;;;;;;;0.67;0.30;;;9.60;99.90;;;;;;5038013;28;20036;-53
2023/11/04 07:54:05;;;;;;;0.97;0.20;;;9.60;99.90;;;;;;5038649;28;20410;-54
2023/11/04 07:56:30;;;;;;;1.13;0.30;;;9.60;99.90;;;;;;5039432;28;20513;-54
2023/11/04 07:58:56;;;;;;;0.83;0.40;;;9.70;99.90;;;;;;5040015;28;20025;-53
2023/11/04 08:01:21;;;;;;;0.50;0.20;;;9.70;99.90;;;;;;5039528;28;20478;-51
2023/11/04 08:03:47;;;;;;;1.83;0.33;;;9.80;99.90;;;;;;5039928;28;20038;-49
2023/11/04 08:06:16;;;;;;;1.10;0.37;;;9.80;99.90;;;;;;5039994;28;20217;-49
2023/11/04 08:08:42;;;;;;;1.40;0.40;;;9.80;99.90;;;;;;5039564;28;20527;-51
2023/11/04 08:11:08;;;;;;;0.37;0.20;;;9.80;99.90;;;;;;5039691;28;20095;-50
2023/11/04 08:13:34;;;;;;;1.93;0.40;;;9.90;99.90;;;;;;5021887;28;20034;-52
2023/11/04 08:15:59;;;;;;;1.63;0.20;;;10.00;99.90;;;;;;5021707;28;20029;-50
2023/11/04 08:18:31;;;;;;;0.67;0.30;;;10.00;99.90;;;;;;5039156;28;20033;-54
2023/11/04 08:20:57;;;;;;;0.63;0.23;;;10.00;99.90;;;;;;5039840;28;20087;-54
2023/11/04 08:23:22;;;;;;;0.50;0.30;;;10.10;99.90;;;;;;5039231;28;20033;-49
2023/11/04 08:25:48;;;;;;;0.67;0.20;;;10.10;99.90;;;;;;5021553;28;20025;-50
2023/11/04 08:28:14;;;;;;;0.53;0.20;;;10.10;99.90;;;;;;5038967;28;20034;-50
2023/11/04 08:30:40;;;;;;;0.67;0.30;;;10.00;99.90;;;;;;5021321;28;20029;-52
2023/11/04 08:33:05;;;;;;;0.27;0.20;;;10.00;99.90;;;;;;5037375;28;20195;-49
2023/11/04 08:35:31;;;;;;;0.93;0.30;;;10.00;99.90;;;;;;5038338;28;20057;-53
2023/11/04 08:37:57;;;;;;;0.20;0.20;;;10.00;99.90;;;;;;5020198;28;20037;-53
2023/11/04 08:40:22;;;;;;;0.77;0.20;;;10.00;99.90;;;;;;5019312;28;20104;-55
2023/11/04 08:42:48;;;;;;;0.20;0.20;;;10.00;99.90;;;;;;5038298;28;20026;-52
2023/11/04 08:45:14;;;;;;;0.47;0.20;;;10.00;99.90;;;;;;5020165;28;20514;-53
2023/11/04 08:47:40;;;;;;;0.23;0.23;;;10.00;99.90;;;;;;5037356;28;20112;-51
2023/11/04 08:50:07;;;;;;;0.73;0.30;;;10.00;99.90;;;;;;5037282;28;20034;-51
2023/11/04 08:52:33;;;;;;;1.13;0.47;;;10.10;99.90;;;;;;5038089;28;20386;-52
2023/11/04 08:55:01;;;;;;;1.90;0.30;;;10.10;99.90;;;;;;5037633;28;20033;-53
2023/11/04 08:57:27;;;;;;;0.47;0.30;;;10.20;99.90;;;;;;5037780;28;20036;-55
2023/11/04 08:59:53;;;;;;;0.90;0.50;;;10.30;99.90;;;;;;5037381;28;20060;-53
2023/11/04 09:02:20;;;;;;;2.57;0.60;;;10.40;99.90;;;;;;5037517;28;20033;-53
2023/11/04 09:04:46;;;;;;;3.43;1.30;;;10.40;99.90;;;;;;5037217;28;20386;-51
2023/11/04 09:07:12;;;;;;;2.60;0.50;;;10.50;99.90;;;;;;5036638;28;20033;-54
2023/11/04 09:09:38;;;;;;;0.80;0.40;;;10.50;99.90;;;;;;5036703;28;20032;-53
2023/11/04 09:12:04;;;;;;;0.20;0.20;;;10.50;99.90;;;;;;5037918;28;20021;-51
2023/11/04 09:14:29;;;;;;;0.20;0.20;;;10.50;99.90;;;;;;5038138;28;20071;-49
2023/11/04 09:16:55;;;;;;;0.53;0.40;;;10.50;99.90;;;;;;5037020;28;20471;-52
2023/11/04 09:19:20;;;;;;;2.10;0.40;;;10.50;99.90;;;;;;5037084;28;20045;-52
2023/11/04 09:21:46;;;;;;;0.10;0.10;;;10.50;99.90;;;;;;5036891;28;20025;-52
2023/11/04 09:24:12;;;;;;;1.77;0.43;;;10.50;99.90;;;;;;5037642;28;20033;-55
2023/11/04 09:26:37;;;;;;;0.60;0.30;;;10.60;99.90;;;;;;5019303;28;20063;-53
2023/11/04 09:29:05;;;;;;;0.93;0.30;;;10.60;99.90;;;;;;5036657;28;20026;-53
2023/11/04 09:31:32;;;;;;;0.60;0.47;;;10.60;99.90;;;;;;5037196;28;20038;-51
2023/11/04 09:33:57;;;;;;;0.73;0.30;;;10.60;99.90;;;;;;5037429;28;20055;-54
2023/11/04 09:36:23;;;;;;;0.27;0.23;;;10.70;99.90;;;;;;5036857;28;20510;-55
2023/11/04 09:38:49;;;;;;;0.87;0.33;;;10.80;99.90;;;;;;5037283;28;20479;-53
2023/11/04 09:41:15;;;;;;;1.07;0.20;;;10.80;99.90;;;;;;5037217;28;20030;-51
2023/11/04 09:43:40;;;;;;;1.17;0.47;;;10.90;99.90;;;;;;5037005;28;20056;-54
2023/11/04 09:46:07;;;;;;;1.13;0.43;;;10.80;99.90;;;;;;5018659;28;20116;-53
2023/11/04 09:48:37;;;;;;;1.53;0.50;;;10.80;99.90;;;;;;5036575;28;20052;-52
2023/11/04 09:51:07;;;;;;;0.20;0.20;;;10.80;99.90;;;;;;5037115;28;20057;-51
2023/11/04 09:53:34;;;;;;;0.30;0.30;;;10.80;99.90;;;;;;5036531;28;20021;-55
2023/11/04 09:56:01;;;;;;;0.83;0.57;;;10.90;99.90;;;;;;5036642;28;20033;-54
2023/11/04 09:58:27;;;;;;;0.80;0.40;;;11.30;99.90;;;;;;5036448;28;20037;-55
2023/11/04 10:00:53;;;;;;;1.67;0.57;;;12.20;99.90;;;;;;5036204;28;20033;-52
2023/11/04 10:03:19;;;;;;;0.90;0.50;;;12.50;99.90;;;;;;5036125;28;20033;-54
2023/11/04 10:05:45;;;;;;;1.30;0.60;;;12.70;99.90;;;;;;5036260;28;20148;-54
2023/11/04 10:08:11;;;;;;;0.93;0.37;;;12.70;99.90;;;;;;5036444;28;20061;-54
2023/11/04 10:10:37;;;;;;;1.00;0.50;;;12.90;99.90;;;;;;5018508;28;20581;-55
2023/11/04 10:13:04;;;;;;;3.00;1.80;;;13.00;99.90;;;;;;5036668;28;20080;-55
2023/11/04 10:15:30;;;;;;;3.57;2.03;;;12.90;99.90;;;;;;5036173;28;20034;-55
2023/11/04 10:17:56;;;;;;;1.02;0.80;;;12.90;99.90;;;;;;5036684;28;20041;-54
2023/11/04 10:20:22;;;;;;;1.52;0.65;;;13.50;99.90;;;;;;5036565;28;20053;-49
2023/11/04 10:22:48;;;;;;;0.70;0.55;;;14.20;99.90;;;;;;5036575;28;20083;-49
2023/11/04 10:25:14;;;;;;;1.73;0.45;;;14.10;99.90;;;;;;5036736;28;20052;-51
2023/11/04 10:27:40;;;;;;;1.58;0.60;;;13.90;99.90;;;;;;5036544;28;20486;-52
2023/11/04 10:30:09;;;;;;;0.98;0.40;;;13.40;99.90;;;;;;5036325;28;20451;-53
2023/11/04 10:32:36;;;;;;;2.97;0.85;;;13.20;99.90;;;;;;5036670;28;20040;-50
2023/11/04 10:35:12;;;;;;;0.80;0.50;;;12.80;99.90;;;;;;5035961;28;20042;-54
2023/11/04 10:37:44;;;;;;;2.05;0.60;;;12.50;99.90;;;;;;5018195;28;20415;-55
2023/11/04 10:40:13;;;;;;;1.93;0.50;;;12.30;99.90;;;;;;5035669;28;20072;-54
2023/11/04 10:42:53;;;;;;;3.05;0.63;;;12.20;99.90;;;;;;5018179;28;20037;-53
2023/11/04 10:45:27;;;;;;;0.40;0.40;;;12.10;99.90;;;;;;5035945;28;20081;-52
2023/11/04 10:47:59;;;;;;;1.63;0.60;;;11.90;99.90;;;;;;5035761;28;20053;-53
2023/11/04 10:50:43;;;;;;;1.67;0.60;;;11.90;99.90;;;;;;5034977;28;20088;-53
2023/11/04 10:53:11;;;;;;;1.43;0.50;;;11.70;99.90;;;;;;5018273;28;20033;-49
2023/11/04 10:55:56;;;;;;;1.47;0.47;;;11.60;99.90;;;;;;5035933;28;20033;-53
2023/11/04 10:58:33;;;;;;;0.37;0.30;;;11.50;99.90;;;;;;5035795;28;20057;-56
2023/11/04 11:01:00;;;;;;;2.47;0.60;;;11.40;99.90;;;;;;5002023;28;20025;-54
2023/11/04 11:03:27;;;;;;;3.30;0.70;;;11.40;99.90;;;;;;5035640;28;20034;-55
2023/11/04 11:05:55;;;;;;;0.40;0.30;;;11.40;99.90;;;;;;5035427;28;20029;-55
2023/11/04 11:08:21;;;;;;;2.13;0.90;;;11.40;99.90;;;;;;5035242;28;20026;-55
2023/11/04 11:10:56;;;;;;;2.37;0.60;;;11.40;99.90;;;;;;5017599;28;20080;-54
2023/11/04 11:13:23;;;;;;;1.30;0.37;;;11.30;99.90;;;;;;5017415;28;20036;-55
2023/11/04 11:15:49;;;;;;;2.60;1.20;;;11.30;99.90;;;;;;5035364;28;20096;-52
2023/11/04 11:18:30;;;;;;;1.40;0.50;;;11.30;99.90;;;;;;5035482;28;20079;-51
2023/11/04 11:21:10;;;;;;;1.57;0.70;;;11.30;99.90;;;;;;5017950;28;20478;-55
2023/11/04 11:23:35;;;;;;;0.80;0.50;;;11.30;99.90;;;;;;5035593;28;20045;-53
2023/11/04 11:26:03;;;;;;;2.07;0.60;;;11.30;99.90;;;;;;5035610;28;20030;-52
2023/11/04 11:28:35;;;;;;;1.47;0.57;;;11.20;99.90;;;;;;5035150;28;20026;-52
2023/11/04 11:31:01;;;;;;;0.90;0.50;;;11.20;99.90;;;;;;5035284;28;20033;-52
2023/11/04 11:33:27;;;;;;;1.17;0.50;;;11.20;99.90;;;;;;5035967;28;20076;-50
2023/11/04 11:35:59;;;;;;;1.43;0.37;;;11.20;99.90;;;;;;5035356;28;20036;-50
2023/11/04 11:38:26;;;;;;;1.37;0.63;;;11.20;99.90;;;;;;5035179;28;20033;-52
2023/11/04 11:40:53;;;;;;;0.13;0.13;;;11.10;99.90;;;;;;5035172;28;20034;-54
2023/11/04 11:43:18;;;;;;;1.40;0.80;;;11.00;99.90;;;;;;5035401;28;20095;-54
2023/11/04 11:45:45;;;;;;;1.87;0.60;;;10.90;99.90;;;;;;5035266;28;20033;-50
2023/11/04 11:48:11;;;;;;;1.53;0.50;;;10.80;99.90;;;;;;5035028;28;20034;-53
2023/11/04 11:50:41;;;;;;;1.90;0.30;;;10.60;99.90;;;;;;5017121;28;20047;-54
2023/11/04 11:53:08;;;;;;;2.13;0.70;;;10.50;99.90;;;;;;5035868;28;20386;-53
2023/11/04 11:55:35;;;;;;;3.50;0.80;;;10.40;99.90;;;;;;5035079;28;20113;-54
2023/11/04 11:58:01;;;;;;;1.47;0.60;;;10.30;99.90;;;;;;5035133;28;20041;-52
2023/11/04 12:00:26;;;;;;;1.13;0.80;;;10.20;99.90;;;;;;5034907;28;20037;-52
2023/11/04 12:02:54;;;;;;;2.43;0.93;;;10.30;99.90;;;;;;5035635;28;20037;-55
2023/11/04 12:05:21;;;;;;;4.60;1.17;;;10.30;99.90;;;;;;5035581;28;20501;-53
2023/11/04 12:07:48;;;;;;;1.67;0.77;;;10.30;99.90;;;;;;5001021;28;20441;-53
2023/11/04 12:10:14;;;;;;;1.60;0.90;;;10.40;99.90;;;;;;5016548;28;20100;-54
2023/11/04 12:12:40;;;;;;;2.40;0.83;;;10.40;99.90;;;;;;5017110;28;20072;-55
2023/11/04 12:15:13;;;;;;;1.80;0.73;;;10.40;99.90;;;;;;5034181;28;20447;-55
2023/11/04 12:17:40;;;;;;;1.67;0.70;;;10.40;99.90;;;;;;5033630;28;20041;-55
2023/11/04 12:20:09;;;;;;;2.43;0.63;;;10.40;99.90;;;;;;5033332;28;20061;-55
2023/11/04 12:22:35;;;;;;;3.08;1.13;;;10.40;99.90;;;;;;5033558;28;20061;-53
2023/11/04 12:25:01;;;;;;;1.50;0.80;;;10.30;99.90;;;;;;5035948;28;20257;-55
2023/11/04 12:27:27;;;;;;;0.60;0.40;;;10.30;99.90;;;;;;5037059;28;20072;-55
2023/11/04 12:29:55;;;;;;;1.93;0.80;;;10.20;99.90;;;;;;5037282;28;20030;-54
2023/11/04 12:32:21;;;;;;;0.87;0.60;;;10.20;99.90;;;;;;5019388;28;20039;-56
2023/11/04 12:34:57;;;;;;;2.23;0.93;;;10.10;99.90;;;;;;5036767;28;20030;-56
2023/11/04 12:37:27;;;;;;;5.03;0.60;;;10.10;99.90;;;;;;5036467;28;20041;-55
2023/11/04 12:39:56;;;;;;;1.77;0.80;;;10.10;99.90;;;;;;5036689;28;20056;-50
2023/11/04 12:42:22;;;;;;;3.40;0.82;;;10.00;99.90;;;;;;5036940;28;20124;-56
2023/11/04 12:44:52;;;;;;;1.00;0.70;;;9.90;99.90;;;;;;5037263;28;20103;-54
2023/11/04 12:47:25;;;;;;;2.40;0.80;;;9.80;99.90;;;;;;5019066;28;20052;-55
2023/11/04 12:49:50;;;;;;;1.60;0.53;;;9.80;99.90;;;;;;5036944;28;20258;-53